sensor_id;sensor_type;location;lat;lon;timestamp;P1;durP1;ratioP1;P2;durP2;ratioP2
65857;SDS011;53776;47.242;18.674;2022-09-09T00:00:37;14.30;;;13.50;;
65857;SDS011;53776;47.242;18.674;2022-09-09T00:06:04;13.68;;;12.93;;
65857;SDS011;53776;47.242;18.674;2022-09-09T00:08:58;12.82;;;12.13;;
65857;SDS011;53776;47.242;18.674;2022-09-09T00:11:24;14.05;;;13.25;;
65857;SDS011;53776;47.242;18.674;2022-09-09T00:13:56;13.77;;;12.98;;
65857;SDS011;53776;47.242;18.674;2022-09-09T00:16:27;14.60;;;13.80;;
65857;SDS011;53776;47.242;18.674;2022-09-09T00:22:12;13.88;;;13.07;;
65857;SDS011;53776;47.242;18.674;2022-09-09T00:24:54;14.00;;;13.20;;
65857;SDS011;53776;47.242;18.674;2022-09-09T00:27:25;14.23;;;13.43;;
65857;SDS011;53776;47.242;18.674;2022-09-09T00:29:56;14.07;;;13.27;;
65857;SDS011;53776;47.242;18.674;2022-09-09T00:32:39;13.90;;;13.10;;
65857;SDS011;53776;47.242;18.674;2022-09-09T00:35:14;13.93;;;13.13;;
65857;SDS011;53776;47.242;18.674;2022-09-09T00:37:43;13.77;;;12.98;;
65857;SDS011;53776;47.242;18.674;2022-09-09T00:40:26;13.60;;;12.90;;
65857;SDS011;53776;47.242;18.674;2022-09-09T00:57:23;14.23;;;13.43;;
65857;SDS011;53776;47.242;18.674;2022-09-09T00:59:52;14.07;;;13.27;;
65857;SDS011;53776;47.242;18.674;2022-09-09T01:02:39;13.90;;;13.10;;
65857;SDS011;53776;47.242;18.674;2022-09-09T01:05:27;13.90;;;13.10;;
65857;SDS011;53776;47.242;18.674;2022-09-09T01:08:03;13.70;;;12.93;;
65857;SDS011;53776;47.242;18.674;2022-09-09T01:10:41;13.95;;;13.15;;
65857;SDS011;53776;47.242;18.674;2022-09-09T01:13:16;13.95;;;13.15;;
65857;SDS011;53776;47.242;18.674;2022-09-09T01:15:48;14.10;;;13.30;;
65857;SDS011;53776;47.242;18.674;2022-09-09T01:18:17;14.15;;;13.35;;
65857;SDS011;53776;47.242;18.674;2022-09-09T01:26:23;14.07;;;13.27;;
65857;SDS011;53776;47.242;18.674;2022-09-09T01:29:12;14.10;;;13.30;;
65857;SDS011;53776;47.242;18.674;2022-09-09T01:31:41;13.88;;;13.07;;
65857;SDS011;53776;47.242;18.674;2022-09-09T01:34:16;14.10;;;13.30;;
65857;SDS011;53776;47.242;18.674;2022-09-09T01:39:25;13.90;;;13.10;;
65857;SDS011;53776;47.242;18.674;2022-09-09T01:41:51;14.18;;;13.38;;
65857;SDS011;53776;47.242;18.674;2022-09-09T01:44:18;14.30;;;13.50;;
65857;SDS011;53776;47.242;18.674;2022-09-09T01:46:44;14.18;;;13.38;;
65857;SDS011;53776;47.242;18.674;2022-09-09T01:49:10;13.90;;;13.10;;
65857;SDS011;53776;47.242;18.674;2022-09-09T01:51:36;13.90;;;13.10;;
65857;SDS011;53776;47.242;18.674;2022-09-09T01:54:04;13.90;;;13.10;;
65857;SDS011;53776;47.242;18.674;2022-09-09T01:59:10;14.40;;;13.60;;
65857;SDS011;53776;47.242;18.674;2022-09-09T02:04:36;13.88;;;13.07;;
65857;SDS011;53776;47.242;18.674;2022-09-09T02:07:10;13.80;;;13.00;;
65857;SDS011;53776;47.242;18.674;2022-09-09T02:13:01;14.45;;;13.65;;
65857;SDS011;53776;47.242;18.674;2022-09-09T02:15:43;13.88;;;13.07;;
65857;SDS011;53776;47.242;18.674;2022-09-09T02:18:32;14.40;;;13.60;;
65857;SDS011;53776;47.242;18.674;2022-09-09T02:21:10;14.43;;;13.63;;
65857;SDS011;53776;47.242;18.674;2022-09-09T02:23:39;14.45;;;13.65;;
65857;SDS011;53776;47.242;18.674;2022-09-09T02:26:07;14.25;;;13.45;;
65857;SDS011;53776;47.242;18.674;2022-09-09T02:28:35;14.48;;;13.68;;
65857;SDS011;53776;47.242;18.674;2022-09-09T02:31:03;14.50;;;13.70;;
65857;SDS011;53776;47.242;18.674;2022-09-09T02:33:32;14.30;;;13.50;;
65857;SDS011;53776;47.242;18.674;2022-09-09T02:36:01;14.32;;;13.52;;
65857;SDS011;53776;47.242;18.674;2022-09-09T02:38:29;14.48;;;13.68;;
65857;SDS011;53776;47.242;18.674;2022-09-09T02:41:00;14.10;;;13.30;;
65857;SDS011;53776;47.242;18.674;2022-09-09T02:43:30;14.73;;;13.93;;
65857;SDS011;53776;47.242;18.674;2022-09-09T02:46:02;14.20;;;13.40;;
65857;SDS011;53776;47.242;18.674;2022-09-09T02:48:35;14.32;;;13.52;;
65857;SDS011;53776;47.242;18.674;2022-09-09T02:56:43;14.80;;;14.00;;
65857;SDS011;53776;47.242;18.674;2022-09-09T02:59:15;14.50;;;13.70;;
65857;SDS011;53776;47.242;18.674;2022-09-09T03:01:41;14.77;;;13.98;;
65857;SDS011;53776;47.242;18.674;2022-09-09T03:04:06;14.88;;;14.07;;
65857;SDS011;53776;47.242;18.674;2022-09-09T03:06:32;14.23;;;13.43;;
65857;SDS011;53776;47.242;18.674;2022-09-09T03:08:57;14.45;;;13.65;;
65857;SDS011;53776;47.242;18.674;2022-09-09T03:11:25;14.65;;;13.85;;
65857;SDS011;53776;47.242;18.674;2022-09-09T03:13:52;14.50;;;13.70;;
65857;SDS011;53776;47.242;18.674;2022-09-09T03:16:17;14.30;;;13.50;;
65857;SDS011;53776;47.242;18.674;2022-09-09T03:18:43;14.65;;;13.85;;
65857;SDS011;53776;47.242;18.674;2022-09-09T03:23:36;15.00;;;14.20;;
65857;SDS011;53776;47.242;18.674;2022-09-09T03:26:01;15.10;;;14.30;;
65857;SDS011;53776;47.242;18.674;2022-09-09T03:28:27;15.00;;;14.20;;
65857;SDS011;53776;47.242;18.674;2022-09-09T03:31:02;15.02;;;14.23;;
65857;SDS011;53776;47.242;18.674;2022-09-09T03:33:29;14.90;;;14.10;;
65857;SDS011;53776;47.242;18.674;2022-09-09T03:35:56;14.65;;;13.85;;
65857;SDS011;53776;47.242;18.674;2022-09-09T03:38:24;15.00;;;14.20;;
65857;SDS011;53776;47.242;18.674;2022-09-09T03:40:50;14.77;;;13.98;;
65857;SDS011;53776;47.242;18.674;2022-09-09T03:45:46;15.00;;;14.20;;
65857;SDS011;53776;47.242;18.674;2022-09-09T03:48:14;15.10;;;14.30;;
65857;SDS011;53776;47.242;18.674;2022-09-09T03:50:47;14.73;;;13.93;;
65857;SDS011;53776;47.242;18.674;2022-09-09T03:53:14;15.07;;;14.27;;
65857;SDS011;53776;47.242;18.674;2022-09-09T03:55:45;14.73;;;13.93;;
65857;SDS011;53776;47.242;18.674;2022-09-09T03:58:12;14.90;;;14.10;;
65857;SDS011;53776;47.242;18.674;2022-09-09T04:00:38;15.57;;;14.67;;
65857;SDS011;53776;47.242;18.674;2022-09-09T04:03:11;14.70;;;13.90;;
65857;SDS011;53776;47.242;18.674;2022-09-09T04:05:38;15.45;;;14.55;;
65857;SDS011;53776;47.242;18.674;2022-09-09T04:08:06;15.05;;;14.25;;
65857;SDS011;53776;47.242;18.674;2022-09-09T04:10:31;15.02;;;14.23;;
65857;SDS011;53776;47.242;18.674;2022-09-09T04:12:57;15.05;;;14.25;;
65857;SDS011;53776;47.242;18.674;2022-09-09T04:15:23;14.93;;;14.13;;
65857;SDS011;53776;47.242;18.674;2022-09-09T04:17:48;15.00;;;14.20;;
65857;SDS011;53776;47.242;18.674;2022-09-09T04:20:14;15.50;;;14.60;;
65857;SDS011;53776;47.242;18.674;2022-09-09T04:22:40;15.70;;;14.80;;
65857;SDS011;53776;47.242;18.674;2022-09-09T04:25:06;15.20;;;14.40;;
65857;SDS011;53776;47.242;18.674;2022-09-09T04:27:31;14.80;;;14.00;;
65857;SDS011;53776;47.242;18.674;2022-09-09T04:29:57;15.18;;;14.38;;
65857;SDS011;53776;47.242;18.674;2022-09-09T04:32:23;15.00;;;14.20;;
65857;SDS011;53776;47.242;18.674;2022-09-09T04:34:49;15.20;;;14.40;;
65857;SDS011;53776;47.242;18.674;2022-09-09T04:37:14;15.20;;;14.40;;
65857;SDS011;53776;47.242;18.674;2022-09-09T04:39:40;15.00;;;14.20;;
65857;SDS011;53776;47.242;18.674;2022-09-09T04:42:05;14.85;;;14.05;;
65857;SDS011;53776;47.242;18.674;2022-09-09T04:44:30;15.18;;;14.38;;
65857;SDS011;53776;47.242;18.674;2022-09-09T04:46:56;15.10;;;14.30;;
65857;SDS011;53776;47.242;18.674;2022-09-09T04:49:21;15.10;;;14.30;;
65857;SDS011;53776;47.242;18.674;2022-09-09T04:51:48;15.60;;;14.70;;
65857;SDS011;53776;47.242;18.674;2022-09-09T04:54:14;14.80;;;14.00;;
65857;SDS011;53776;47.242;18.674;2022-09-09T04:56:39;14.88;;;14.07;;
65857;SDS011;53776;47.242;18.674;2022-09-09T04:59:07;15.30;;;14.47;;
65857;SDS011;53776;47.242;18.674;2022-09-09T05:01:32;15.20;;;14.40;;
65857;SDS011;53776;47.242;18.674;2022-09-09T05:03:58;15.02;;;14.23;;
65857;SDS011;53776;47.242;18.674;2022-09-09T05:06:24;14.90;;;14.10;;
65857;SDS011;53776;47.242;18.674;2022-09-09T05:08:49;14.82;;;14.02;;
65857;SDS011;53776;47.242;18.674;2022-09-09T05:13:42;14.88;;;14.07;;
65857;SDS011;53776;47.242;18.674;2022-09-09T05:16:07;15.43;;;14.52;;
65857;SDS011;53776;47.242;18.674;2022-09-09T05:18:36;14.85;;;14.05;;
65857;SDS011;53776;47.242;18.674;2022-09-09T05:21:02;15.20;;;14.40;;
65857;SDS011;53776;47.242;18.674;2022-09-09T05:23:27;14.95;;;14.15;;
65857;SDS011;53776;47.242;18.674;2022-09-09T05:25:54;14.88;;;14.07;;
65857;SDS011;53776;47.242;18.674;2022-09-09T05:28:23;14.93;;;14.13;;
65857;SDS011;53776;47.242;18.674;2022-09-09T05:31:00;15.18;;;14.38;;
65857;SDS011;53776;47.242;18.674;2022-09-09T05:33:29;14.88;;;14.07;;
65857;SDS011;53776;47.242;18.674;2022-09-09T05:35:59;14.95;;;14.15;;
65857;SDS011;53776;47.242;18.674;2022-09-09T05:38:27;15.07;;;14.27;;
65857;SDS011;53776;47.242;18.674;2022-09-09T05:40:54;15.45;;;14.55;;
65857;SDS011;53776;47.242;18.674;2022-09-09T05:43:21;15.30;;;14.43;;
65857;SDS011;53776;47.242;18.674;2022-09-09T05:45:47;15.40;;;14.50;;
65857;SDS011;53776;47.242;18.674;2022-09-09T05:48:14;15.30;;;14.45;;
65857;SDS011;53776;47.242;18.674;2022-09-09T05:50:41;15.17;;;14.37;;
65857;SDS011;53776;47.242;18.674;2022-09-09T05:53:07;14.75;;;13.95;;
65857;SDS011;53776;47.242;18.674;2022-09-09T05:55:33;15.25;;;14.43;;
65857;SDS011;53776;47.242;18.674;2022-09-09T05:57:58;14.95;;;14.15;;
65857;SDS011;53776;47.242;18.674;2022-09-09T06:00:24;15.40;;;14.50;;
65857;SDS011;53776;47.242;18.674;2022-09-09T06:02:51;15.40;;;14.52;;
65857;SDS011;53776;47.242;18.674;2022-09-09T06:05:17;15.25;;;14.43;;
65857;SDS011;53776;47.242;18.674;2022-09-09T06:07:43;15.30;;;14.45;;
65857;SDS011;53776;47.242;18.674;2022-09-09T06:10:10;15.10;;;14.30;;
65857;SDS011;53776;47.242;18.674;2022-09-09T06:12:41;14.80;;;14.00;;
65857;SDS011;53776;47.242;18.674;2022-09-09T06:15:06;15.18;;;14.38;;
65857;SDS011;53776;47.242;18.674;2022-09-09T06:17:34;15.18;;;14.38;;
65857;SDS011;53776;47.242;18.674;2022-09-09T06:19:59;14.90;;;14.10;;
65857;SDS011;53776;47.242;18.674;2022-09-09T06:22:24;14.80;;;14.00;;
65857;SDS011;53776;47.242;18.674;2022-09-09T06:24:50;15.20;;;14.40;;
65857;SDS011;53776;47.242;18.674;2022-09-09T06:27:16;15.20;;;14.40;;
65857;SDS011;53776;47.242;18.674;2022-09-09T06:29:41;15.48;;;14.57;;
65857;SDS011;53776;47.242;18.674;2022-09-09T06:32:07;15.38;;;14.50;;
65857;SDS011;53776;47.242;18.674;2022-09-09T06:34:33;14.75;;;13.95;;
65857;SDS011;53776;47.242;18.674;2022-09-09T06:36:58;14.60;;;13.80;;
65857;SDS011;53776;47.242;18.674;2022-09-09T06:39:24;14.95;;;14.15;;
65857;SDS011;53776;47.242;18.674;2022-09-09T06:41:50;14.90;;;14.10;;
65857;SDS011;53776;47.242;18.674;2022-09-09T06:44:18;14.87;;;14.07;;
65857;SDS011;53776;47.242;18.674;2022-09-09T06:46:44;15.02;;;14.23;;
65857;SDS011;53776;47.242;18.674;2022-09-09T06:49:12;15.10;;;14.30;;
65857;SDS011;53776;47.242;18.674;2022-09-09T06:51:38;14.77;;;13.98;;
65857;SDS011;53776;47.242;18.674;2022-09-09T06:54:08;15.02;;;14.23;;
65857;SDS011;53776;47.242;18.674;2022-09-09T06:56:37;15.00;;;14.20;;
65857;SDS011;53776;47.242;18.674;2022-09-09T06:59:07;15.15;;;14.35;;
65857;SDS011;53776;47.242;18.674;2022-09-09T07:01:37;14.83;;;14.03;;
65857;SDS011;53776;47.242;18.674;2022-09-09T07:04:07;14.80;;;14.00;;
65857;SDS011;53776;47.242;18.674;2022-09-09T07:06:40;14.80;;;14.00;;
65857;SDS011;53776;47.242;18.674;2022-09-09T07:09:09;14.60;;;13.80;;
65857;SDS011;53776;47.242;18.674;2022-09-09T07:14:08;15.40;;;14.50;;
65857;SDS011;53776;47.242;18.674;2022-09-09T07:16:36;15.32;;;14.50;;
65857;SDS011;53776;47.242;18.674;2022-09-09T07:19:02;14.70;;;13.90;;
65857;SDS011;53776;47.242;18.674;2022-09-09T07:21:29;14.80;;;14.00;;
65857;SDS011;53776;47.242;18.674;2022-09-09T07:23:56;14.95;;;14.15;;
65857;SDS011;53776;47.242;18.674;2022-09-09T07:26:22;14.90;;;14.10;;
65857;SDS011;53776;47.242;18.674;2022-09-09T07:28:50;15.40;;;14.50;;
65857;SDS011;53776;47.242;18.674;2022-09-09T07:33:43;14.63;;;13.82;;
65857;SDS011;53776;47.242;18.674;2022-09-09T07:36:10;14.52;;;13.73;;
65857;SDS011;53776;47.242;18.674;2022-09-09T07:38:39;14.30;;;13.50;;
65857;SDS011;53776;47.242;18.674;2022-09-09T07:41:07;14.77;;;13.98;;
65857;SDS011;53776;47.242;18.674;2022-09-09T07:43:37;14.43;;;13.63;;
65857;SDS011;53776;47.242;18.674;2022-09-09T07:46:04;14.52;;;13.73;;
65857;SDS011;53776;47.242;18.674;2022-09-09T07:48:30;14.75;;;13.95;;
65857;SDS011;53776;47.242;18.674;2022-09-09T07:51:07;14.43;;;13.63;;
65857;SDS011;53776;47.242;18.674;2022-09-09T07:53:44;14.73;;;13.93;;
65857;SDS011;53776;47.242;18.674;2022-09-09T07:56:11;14.50;;;13.70;;
65857;SDS011;53776;47.242;18.674;2022-09-09T07:58:45;14.10;;;13.30;;
65857;SDS011;53776;47.242;18.674;2022-09-09T08:01:13;14.35;;;13.55;;
65857;SDS011;53776;47.242;18.674;2022-09-09T08:03:53;14.73;;;13.93;;
65857;SDS011;53776;47.242;18.674;2022-09-09T08:06:21;14.60;;;13.80;;
65857;SDS011;53776;47.242;18.674;2022-09-09T08:08:49;14.40;;;13.60;;
65857;SDS011;53776;47.242;18.674;2022-09-09T08:11:15;14.50;;;13.70;;
65857;SDS011;53776;47.242;18.674;2022-09-09T08:13:42;14.13;;;13.32;;
65857;SDS011;53776;47.242;18.674;2022-09-09T08:16:16;14.40;;;13.60;;
65857;SDS011;53776;47.242;18.674;2022-09-09T08:18:43;14.15;;;13.35;;
65857;SDS011;53776;47.242;18.674;2022-09-09T08:23:37;14.13;;;13.32;;
65857;SDS011;53776;47.242;18.674;2022-09-09T08:26:07;14.37;;;13.57;;
65857;SDS011;53776;47.242;18.674;2022-09-09T08:28:39;14.07;;;13.27;;
65857;SDS011;53776;47.242;18.674;2022-09-09T08:31:12;14.45;;;13.65;;
65857;SDS011;53776;47.242;18.674;2022-09-09T08:33:38;14.40;;;13.60;;
65857;SDS011;53776;47.242;18.674;2022-09-09T08:36:06;14.80;;;14.00;;
65857;SDS011;53776;47.242;18.674;2022-09-09T08:38:35;14.40;;;13.60;;
65857;SDS011;53776;47.242;18.674;2022-09-09T08:47:22;14.30;;;13.50;;
65857;SDS011;53776;47.242;18.674;2022-09-09T08:52:28;14.75;;;13.95;;
65857;SDS011;53776;47.242;18.674;2022-09-09T08:57:49;14.02;;;13.23;;
65857;SDS011;53776;47.242;18.674;2022-09-09T09:00:18;14.23;;;13.43;;
65857;SDS011;53776;47.242;18.674;2022-09-09T09:05:44;14.63;;;13.83;;
65857;SDS011;53776;47.242;18.674;2022-09-09T09:08:28;14.30;;;13.50;;
65857;SDS011;53776;47.242;18.674;2022-09-09T09:11:39;14.35;;;13.55;;
65857;SDS011;53776;47.242;18.674;2022-09-09T09:14:11;14.40;;;13.60;;
65857;SDS011;53776;47.242;18.674;2022-09-09T09:19:23;14.25;;;13.45;;
65857;SDS011;53776;47.242;18.674;2022-09-09T09:24:18;14.60;;;13.80;;
65857;SDS011;53776;47.242;18.674;2022-09-09T09:26:45;14.55;;;13.75;;
65857;SDS011;53776;47.242;18.674;2022-09-09T09:29:11;14.40;;;13.60;;
65857;SDS011;53776;47.242;18.674;2022-09-09T09:31:41;14.73;;;13.93;;
65857;SDS011;53776;47.242;18.674;2022-09-09T09:34:10;14.27;;;13.48;;
65857;SDS011;53776;47.242;18.674;2022-09-09T09:36:41;14.50;;;13.70;;
65857;SDS011;53776;47.242;18.674;2022-09-09T09:39:36;14.48;;;13.68;;
65857;SDS011;53776;47.242;18.674;2022-09-09T09:42:14;14.10;;;13.30;;
65857;SDS011;53776;47.242;18.674;2022-09-09T09:47:11;14.57;;;13.77;;
65857;SDS011;53776;47.242;18.674;2022-09-09T09:49:39;14.40;;;13.60;;
65857;SDS011;53776;47.242;18.674;2022-09-09T09:52:16;14.45;;;13.65;;
65857;SDS011;53776;47.242;18.674;2022-09-09T09:54:45;14.63;;;13.82;;
65857;SDS011;53776;47.242;18.674;2022-09-09T09:57:11;14.00;;;13.20;;
65857;SDS011;53776;47.242;18.674;2022-09-09T09:59:39;14.35;;;13.55;;
65857;SDS011;53776;47.242;18.674;2022-09-09T10:02:18;14.80;;;14.00;;
65857;SDS011;53776;47.242;18.674;2022-09-09T10:04:59;14.40;;;13.60;;
65857;SDS011;53776;47.242;18.674;2022-09-09T10:07:26;14.48;;;13.68;;
65857;SDS011;53776;47.242;18.674;2022-09-09T10:09:55;14.50;;;13.70;;
65857;SDS011;53776;47.242;18.674;2022-09-09T10:28:30;14.68;;;13.88;;
65857;SDS011;53776;47.242;18.674;2022-09-09T10:31:25;14.30;;;13.50;;
65857;SDS011;53776;47.242;18.674;2022-09-09T10:37:11;14.27;;;13.48;;
65857;SDS011;53776;47.242;18.674;2022-09-09T10:40:21;14.45;;;13.65;;
65857;SDS011;53776;47.242;18.674;2022-09-09T10:42:44;14.23;;;13.43;;
65857;SDS011;53776;47.242;18.674;2022-09-09T10:45:18;14.27;;;13.48;;
65857;SDS011;53776;47.242;18.674;2022-09-09T10:50:50;14.45;;;13.65;;
65857;SDS011;53776;47.242;18.674;2022-09-09T10:56:10;14.52;;;13.73;;
65857;SDS011;53776;47.242;18.674;2022-09-09T10:58:49;14.18;;;13.38;;
65857;SDS011;53776;47.242;18.674;2022-09-09T11:01:24;14.07;;;13.27;;
65857;SDS011;53776;47.242;18.674;2022-09-09T11:03:56;14.45;;;13.65;;
65857;SDS011;53776;47.242;18.674;2022-09-09T11:06:37;14.00;;;13.20;;
65857;SDS011;53776;47.242;18.674;2022-09-09T11:09:08;14.15;;;13.35;;
65857;SDS011;53776;47.242;18.674;2022-09-09T11:11:43;14.60;;;13.80;;
65857;SDS011;53776;47.242;18.674;2022-09-09T11:14:19;14.10;;;13.30;;
65857;SDS011;53776;47.242;18.674;2022-09-09T11:16:57;14.43;;;13.63;;
65857;SDS011;53776;47.242;18.674;2022-09-09T11:25:15;14.25;;;13.45;;
65857;SDS011;53776;47.242;18.674;2022-09-09T11:28:20;14.10;;;13.30;;
65857;SDS011;53776;47.242;18.674;2022-09-09T11:36:25;14.38;;;13.57;;
65857;SDS011;53776;47.242;18.674;2022-09-09T11:39:00;14.32;;;13.52;;
65857;SDS011;53776;47.242;18.674;2022-09-09T11:41:45;14.00;;;13.20;;
65857;SDS011;53776;47.242;18.674;2022-09-09T11:44:11;13.80;;;13.00;;
65857;SDS011;53776;47.242;18.674;2022-09-09T11:46:41;14.10;;;13.30;;
65857;SDS011;53776;47.242;18.674;2022-09-09T11:49:22;13.82;;;13.05;;
65857;SDS011;53776;47.242;18.674;2022-09-09T11:51:53;13.63;;;12.88;;
65857;SDS011;53776;47.242;18.674;2022-09-09T11:54:30;14.18;;;13.38;;
65857;SDS011;53776;47.242;18.674;2022-09-09T11:59:25;14.20;;;13.40;;
65857;SDS011;53776;47.242;18.674;2022-09-09T12:02:12;14.00;;;13.20;;
65857;SDS011;53776;47.242;18.674;2022-09-09T12:04:46;14.30;;;13.50;;
65857;SDS011;53776;47.242;18.674;2022-09-09T12:12:53;13.38;;;12.68;;
65857;SDS011;53776;47.242;18.674;2022-09-09T12:15:20;14.40;;;13.60;;
65857;SDS011;53776;47.242;18.674;2022-09-09T12:17:49;14.20;;;13.40;;
65857;SDS011;53776;47.242;18.674;2022-09-09T12:33:36;14.13;;;13.32;;
65857;SDS011;53776;47.242;18.674;2022-09-09T12:36:05;14.05;;;13.25;;
65857;SDS011;53776;47.242;18.674;2022-09-09T12:38:38;14.27;;;13.48;;
65857;SDS011;53776;47.242;18.674;2022-09-09T12:41:05;14.15;;;13.35;;
65857;SDS011;53776;47.242;18.674;2022-09-09T12:43:31;14.10;;;13.30;;
65857;SDS011;53776;47.242;18.674;2022-09-09T12:46:00;14.05;;;13.25;;
65857;SDS011;53776;47.242;18.674;2022-09-09T12:48:35;14.13;;;13.32;;
65857;SDS011;53776;47.242;18.674;2022-09-09T12:51:02;13.32;;;12.63;;
65857;SDS011;53776;47.242;18.674;2022-09-09T12:53:35;13.05;;;12.35;;
65857;SDS011;53776;47.242;18.674;2022-09-09T12:58:27;13.82;;;13.02;;
65857;SDS011;53776;47.242;18.674;2022-09-09T13:00:57;12.90;;;12.20;;
65857;SDS011;53776;47.242;18.674;2022-09-09T13:03:25;13.40;;;12.70;;
65857;SDS011;53776;47.242;18.674;2022-09-09T13:05:52;14.13;;;13.32;;
65857;SDS011;53776;47.242;18.674;2022-09-09T13:08:19;14.07;;;13.27;;
65857;SDS011;53776;47.242;18.674;2022-09-09T13:10:49;13.63;;;12.88;;
65857;SDS011;53776;47.242;18.674;2022-09-09T13:13:43;13.35;;;12.65;;
65857;SDS011;53776;47.242;18.674;2022-09-09T13:16:21;14.30;;;13.50;;
65857;SDS011;53776;47.242;18.674;2022-09-09T13:19:08;13.73;;;12.93;;
65857;SDS011;53776;47.242;18.674;2022-09-09T13:21:38;13.30;;;12.60;;
65857;SDS011;53776;47.242;18.674;2022-09-09T13:24:06;14.10;;;13.30;;
65857;SDS011;53776;47.242;18.674;2022-09-09T13:27:03;14.50;;;13.70;;
65857;SDS011;53776;47.242;18.674;2022-09-09T13:29:53;14.15;;;13.35;;
65857;SDS011;53776;47.242;18.674;2022-09-09T13:32:22;14.60;;;13.80;;
65857;SDS011;53776;47.242;18.674;2022-09-09T13:34:53;13.98;;;13.18;;
65857;SDS011;53776;47.242;18.674;2022-09-09T13:40:03;12.82;;;12.13;;
65857;SDS011;53776;47.242;18.674;2022-09-09T13:42:41;12.88;;;12.18;;
65857;SDS011;53776;47.242;18.674;2022-09-09T13:45:28;13.98;;;13.18;;
65857;SDS011;53776;47.242;18.674;2022-09-09T13:47:53;13.90;;;13.10;;
65857;SDS011;53776;47.242;18.674;2022-09-09T13:52:56;14.18;;;13.38;;
65857;SDS011;53776;47.242;18.674;2022-09-09T13:55:28;13.48;;;12.77;;
65857;SDS011;53776;47.242;18.674;2022-09-09T14:00:25;13.65;;;12.90;;
65857;SDS011;53776;47.242;18.674;2022-09-09T14:02:53;14.13;;;13.32;;
65857;SDS011;53776;47.242;18.674;2022-09-09T14:05:20;14.43;;;13.63;;
65857;SDS011;53776;47.242;18.674;2022-09-09T14:07:47;13.87;;;13.07;;
65857;SDS011;53776;47.242;18.674;2022-09-09T14:10:13;14.13;;;13.32;;
65857;SDS011;53776;47.242;18.674;2022-09-09T14:12:38;13.02;;;12.32;;
65857;SDS011;53776;47.242;18.674;2022-09-09T14:15:05;14.15;;;13.35;;
65857;SDS011;53776;47.242;18.674;2022-09-09T14:17:32;13.52;;;12.82;;
65857;SDS011;53776;47.242;18.674;2022-09-09T14:19:58;13.50;;;12.80;;
65857;SDS011;53776;47.242;18.674;2022-09-09T14:22:23;12.40;;;11.70;;
65857;SDS011;53776;47.242;18.674;2022-09-09T14:24:49;13.35;;;12.65;;
65857;SDS011;53776;47.242;18.674;2022-09-09T14:27:16;13.40;;;12.70;;
65857;SDS011;53776;47.242;18.674;2022-09-09T14:29:42;13.02;;;12.32;;
65857;SDS011;53776;47.242;18.674;2022-09-09T14:32:09;13.02;;;12.32;;
65857;SDS011;53776;47.242;18.674;2022-09-09T14:34:34;13.02;;;12.32;;
65857;SDS011;53776;47.242;18.674;2022-09-09T14:37:00;13.73;;;12.93;;
65857;SDS011;53776;47.242;18.674;2022-09-09T14:39:25;13.55;;;12.82;;
65857;SDS011;53776;47.242;18.674;2022-09-09T14:41:51;12.75;;;12.05;;
65857;SDS011;53776;47.242;18.674;2022-09-09T14:44:16;13.75;;;13.00;;
65857;SDS011;53776;47.242;18.674;2022-09-09T14:46:42;13.05;;;12.35;;
65857;SDS011;53776;47.242;18.674;2022-09-09T14:49:08;13.00;;;12.30;;
65857;SDS011;53776;47.242;18.674;2022-09-09T14:51:35;12.95;;;12.25;;
65857;SDS011;53776;47.242;18.674;2022-09-09T14:54:00;14.00;;;13.20;;
65857;SDS011;53776;47.242;18.674;2022-09-09T14:56:28;13.57;;;12.82;;
65857;SDS011;53776;47.242;18.674;2022-09-09T14:58:55;12.40;;;11.70;;
65857;SDS011;53776;47.242;18.674;2022-09-09T15:01:22;13.17;;;12.47;;
65857;SDS011;53776;47.242;18.674;2022-09-09T15:03:49;14.98;;;14.18;;
65857;SDS011;53776;47.242;18.674;2022-09-09T15:06:20;14.63;;;13.82;;
65857;SDS011;53776;47.242;18.674;2022-09-09T15:08:46;13.98;;;13.18;;
65857;SDS011;53776;47.242;18.674;2022-09-09T15:11:12;14.60;;;13.80;;
65857;SDS011;53776;47.242;18.674;2022-09-09T15:13:39;14.27;;;13.48;;
65857;SDS011;53776;47.242;18.674;2022-09-09T15:16:06;13.77;;;13.00;;
65857;SDS011;53776;47.242;18.674;2022-09-09T15:18:34;14.38;;;13.57;;
65857;SDS011;53776;47.242;18.674;2022-09-09T15:21:02;14.40;;;13.60;;
65857;SDS011;53776;47.242;18.674;2022-09-09T15:23:31;14.57;;;13.77;;
65857;SDS011;53776;47.242;18.674;2022-09-09T15:25:57;14.50;;;13.70;;
65857;SDS011;53776;47.242;18.674;2022-09-09T15:28:22;350.30;;;160.38;;
65857;SDS011;53776;47.242;18.674;2022-09-09T15:36:34;1999.90;;;999.90;;
65857;SDS011;53776;47.242;18.674;2022-09-09T15:39:04;1999.90;;;999.90;;
65857;SDS011;53776;47.242;18.674;2022-09-09T15:41:32;1999.90;;;999.90;;
65857;SDS011;53776;47.242;18.674;2022-09-09T15:43:57;1999.90;;;999.90;;
65857;SDS011;53776;47.242;18.674;2022-09-09T15:46:25;1999.90;;;999.90;;
65857;SDS011;53776;47.242;18.674;2022-09-09T15:48:56;1999.90;;;999.90;;
65857;SDS011;53776;47.242;18.674;2022-09-09T15:51:24;1999.90;;;999.90;;
65857;SDS011;53776;47.242;18.674;2022-09-09T15:53:54;1999.90;;;999.90;;
65857;SDS011;53776;47.242;18.674;2022-09-09T15:56:21;1999.90;;;999.90;;
65857;SDS011;53776;47.242;18.674;2022-09-09T15:58:47;1999.90;;;999.90;;
65857;SDS011;53776;47.242;18.674;2022-09-09T16:01:12;1999.90;;;999.90;;
65857;SDS011;53776;47.242;18.674;2022-09-09T16:03:38;1999.90;;;999.90;;
65857;SDS011;53776;47.242;18.674;2022-09-09T16:06:07;1999.90;;;999.90;;
65857;SDS011;53776;47.242;18.674;2022-09-09T16:08:34;1999.90;;;999.90;;
65857;SDS011;53776;47.242;18.674;2022-09-09T16:13:40;1999.90;;;999.90;;
65857;SDS011;53776;47.242;18.674;2022-09-09T16:16:08;1999.90;;;999.90;;
65857;SDS011;53776;47.242;18.674;2022-09-09T16:18:39;1999.90;;;999.90;;
65857;SDS011;53776;47.242;18.674;2022-09-09T16:21:06;1999.90;;;999.90;;
65857;SDS011;53776;47.242;18.674;2022-09-09T16:23:33;1999.90;;;999.90;;
65857;SDS011;53776;47.242;18.674;2022-09-09T16:25:59;1999.90;;;999.90;;
65857;SDS011;53776;47.242;18.674;2022-09-09T16:28:24;1999.90;;;999.90;;
65857;SDS011;53776;47.242;18.674;2022-09-09T16:30:50;1999.90;;;999.90;;
65857;SDS011;53776;47.242;18.674;2022-09-09T16:33:16;1999.90;;;999.90;;
65857;SDS011;53776;47.242;18.674;2022-09-09T16:35:41;1999.90;;;999.90;;
65857;SDS011;53776;47.242;18.674;2022-09-09T16:38:07;1999.90;;;999.90;;
65857;SDS011;53776;47.242;18.674;2022-09-09T16:40:36;1999.90;;;999.90;;
65857;SDS011;53776;47.242;18.674;2022-09-09T16:43:06;1999.90;;;999.90;;
65857;SDS011;53776;47.242;18.674;2022-09-09T16:45:32;1999.90;;;999.90;;
65857;SDS011;53776;47.242;18.674;2022-09-09T16:48:01;1999.90;;;999.90;;
65857;SDS011;53776;47.242;18.674;2022-09-09T16:50:26;1999.90;;;999.90;;
65857;SDS011;53776;47.242;18.674;2022-09-09T16:52:52;1999.90;;;999.90;;
65857;SDS011;53776;47.242;18.674;2022-09-09T16:55:18;1999.90;;;999.90;;
65857;SDS011;53776;47.242;18.674;2022-09-09T16:57:45;1999.90;;;999.90;;